ENSO/SRP METAR and TAF weather

Enter ICAO airport designator
Station Type Date Time Source
ENSO METAR 2019/12/06 18:50 UTC NOAA

ENSO 061850Z VRB01KT 9999 -DZ FEW004 SCT005 BKN0015 05/05 Q0987


Station Type Date Time Source
ENSO Decoded METAR 2019/12/06 18:50 UTC NOAA

Stord / Soerstokken, Norway (ENSO) 59-48N 005-21E
Dec 06, 2019 - 01:50 PM EST / 2019.12.06 1850 UTC
Wind: Variable at 1 MPH (1 KT):0
Visibility: greater than 7 mile(s):0
Sky conditions: mostly cloudy
Weather: light drizzle
Temperature: 41 F (5 C)
Dew Point: 41 F (5 C)
Relative Humidity: 100%
Pressure (altimeter): 29.15 in. Hg (0987 hPa)
ob: ENSO 061850Z VRB01KT 9999 -DZ FEW004 SCT005 BKN0015 05/05 Q0987
cycle: 19

Station Type Date Time Source
ENSO TAF UTC NOAA

Error!

Example: see airport list